Time,TemperatureF,DewpointF,PressureIn,WindDirection,WindDirectionDegrees,WindSpeedMPH,WindSpeedGustMPH,Humidity,HourlyPrecipIn,Conditions,Clouds,dailyrainin,SoftwareType,DateUTC
2013-02-06 00:02:00,30.0,25.0,30.03,WNW,292,0.0,3.0,81,0.00,,,0.00,,2013-02-06 05:02:00,
2013-02-06 00:12:00,30.0,25.0,30.03,WNW,292,0.0,3.0,81,0.00,,,0.00,,2013-02-06 05:12:00,
2013-02-06 00:22:00,30.0,25.0,30.04,NW,315,0.0,0.0,81,0.00,,,0.00,,2013-02-06 05:22:00,
2013-02-06 00:32:00,30.0,25.0,30.04,NW,315,0.0,0.0,81,0.00,,,0.00,,2013-02-06 05:32:00,
2013-02-06 00:41:00,30.0,25.0,30.04,NW,315,0.0,0.0,81,0.00,,,0.00,,2013-02-06 05:41:00,
2013-02-06 00:53:00,30.0,25.0,30.05,West,270,4.0,4.0,81,0.00,,,0.00,,2013-02-06 05:53:00,
2013-02-06 01:01:00,30.0,25.0,30.05,West,270,4.0,4.0,81,0.00,,,0.00,,2013-02-06 06:01:00,
2013-02-06 01:11:00,30.0,25.0,30.05,West,270,4.0,4.0,81,0.00,,,0.00,,2013-02-06 06:11:00,
2013-02-06 01:22:00,30.0,25.0,30.07,WNW,292,0.0,5.0,81,0.00,,,0.00,,2013-02-06 06:22:00,
2013-02-06 01:32:00,29.0,24.0,30.08,West,270,0.0,0.0,80,0.00,,,0.00,,2013-02-06 06:32:00,
2013-02-06 01:42:00,29.0,24.0,30.08,West,270,0.0,0.0,80,0.00,,,0.00,,2013-02-06 06:42:00,
2013-02-06 01:52:00,29.0,24.0,30.08,WNW,292,0.0,0.0,80,0.00,,,0.00,,2013-02-06 06:52:00,
2013-02-06 02:01:00,29.0,24.0,30.08,WNW,292,0.0,0.0,80,0.00,,,0.00,,2013-02-06 07:01:00,
2013-02-06 02:11:00,29.0,24.0,30.08,WNW,292,0.0,0.0,80,0.00,,,0.00,,2013-02-06 07:11:00,
2013-02-06 02:22:00,29.0,24.0,30.09,NW,315,0.0,0.0,80,0.00,,,0.00,,2013-02-06 07:22:00,
2013-02-06 02:32:00,29.0,24.0,30.09,NW,315,0.0,0.0,80,0.00,,,0.00,,2013-02-06 07:32:00,
2013-02-06 02:42:00,29.0,24.0,30.09,NW,315,0.0,0.0,80,0.00,,,0.00,,2013-02-06 07:42:00,
2013-02-06 02:52:00,29.0,24.0,30.10,NW,315,0.0,0.0,80,0.00,,,0.00,,2013-02-06 07:52:00,
2013-02-06 03:01:00,29.0,24.0,30.10,North,-999,-999.0,-999.0,80,0.00,,,0.00,,2013-02-06 08:01:00,
2013-02-06 03:11:00,29.0,24.0,30.10,North,-999,-999.0,-999.0,80,0.00,,,0.00,,2013-02-06 08:11:00,
2013-02-06 03:21:00,29.0,24.0,30.12,WNW,292,0.0,0.0,80,0.00,,,0.00,,2013-02-06 08:21:00,
2013-02-06 03:31:00,29.0,24.0,30.12,WNW,292,0.0,0.0,80,0.00,,,0.00,,2013-02-06 08:31:00,
2013-02-06 03:42:00,29.0,24.0,30.12,WNW,292,0.0,0.0,80,0.00,,,0.00,,2013-02-06 08:42:00,
2013-02-06 03:53:00,29.0,24.0,30.12,WNW,292,0.0,0.0,80,0.00,,,0.00,,2013-02-06 08:53:00,
2013-02-06 04:01:00,29.0,24.0,30.12,WNW,292,0.0,0.0,80,0.00,,,0.00,,2013-02-06 09:01:00,
2013-02-06 04:11:00,29.0,24.0,30.12,WNW,292,0.0,0.0,80,0.00,,,0.00,,2013-02-06 09:11:00,
2013-02-06 04:21:00,28.0,23.0,30.12,West,270,0.0,0.0,80,0.00,,,0.00,,2013-02-06 09:21:00,
2013-02-06 04:32:00,28.0,22.0,30.13,West,270,2.0,2.0,79,0.00,,,0.00,,2013-02-06 09:32:00,
2013-02-06 04:42:00,28.0,22.0,30.13,West,270,2.0,2.0,79,0.00,,,0.00,,2013-02-06 09:42:00,
2013-02-06 04:52:00,28.0,22.0,30.13,West,270,0.0,0.0,79,0.00,,,0.00,,2013-02-06 09:52:00,
2013-02-06 05:01:00,28.0,22.0,30.13,West,270,0.0,0.0,79,0.00,,,0.00,,2013-02-06 10:01:00,
2013-02-06 05:11:00,28.0,22.0,30.13,West,270,0.0,0.0,79,0.00,,,0.00,,2013-02-06 10:11:00,
2013-02-06 05:21:00,28.0,22.0,30.13,West,270,0.0,0.0,79,0.00,,,0.00,,2013-02-06 10:21:00,
2013-02-06 05:32:00,28.0,22.0,30.15,West,270,0.0,0.0,79,0.00,,,0.00,,2013-02-06 10:32:00,
2013-02-06 05:42:00,28.0,22.0,30.15,West,270,0.0,0.0,79,0.00,,,0.00,,2013-02-06 10:42:00,
2013-02-06 05:52:00,28.0,22.0,30.16,West,270,0.0,0.0,79,0.00,,,0.00,,2013-02-06 10:52:00,
2013-02-06 06:01:00,28.0,22.0,30.17,West,270,0.0,0.0,79,0.00,,,0.00,,2013-02-06 11:01:00,
2013-02-06 06:11:00,28.0,22.0,30.17,West,270,0.0,0.0,79,0.00,,,0.00,,2013-02-06 11:11:00,
2013-02-06 06:22:00,28.0,22.0,30.17,West,270,0.0,0.0,79,0.00,,,0.00,,2013-02-06 11:22:00,
2013-02-06 06:32:00,28.0,22.0,30.18,West,270,0.0,0.0,79,0.00,,,0.00,,2013-02-06 11:32:00,
2013-02-06 06:42:00,28.0,22.0,30.18,West,270,0.0,0.0,79,0.00,,,0.00,,2013-02-06 11:42:00,
2013-02-06 06:52:00,28.0,22.0,30.19,West,270,0.0,0.0,79,0.00,,,0.00,,2013-02-06 11:52:00,
2013-02-06 07:02:00,28.0,22.0,30.20,West,270,0.0,0.0,79,0.00,,,0.00,,2013-02-06 12:02:00,
2013-02-06 07:12:00,28.0,22.0,30.20,West,270,0.0,0.0,79,0.00,,,0.00,,2013-02-06 12:12:00,
2013-02-06 07:22:00,28.0,22.0,30.20,West,270,0.0,0.0,79,0.00,,,0.00,,2013-02-06 12:22:00,
2013-02-06 07:32:00,28.0,22.0,30.21,West,270,0.0,0.0,79,0.00,,,0.00,,2013-02-06 12:32:00,
2013-02-06 07:42:00,28.0,22.0,30.21,West,270,0.0,0.0,79,0.00,,,0.00,,2013-02-06 12:42:00,
2013-02-06 07:52:00,28.0,22.0,30.21,WNW,292,0.0,0.0,79,0.00,,,0.00,,2013-02-06 12:52:00,
2013-02-06 08:01:00,28.0,22.0,30.22,WNW,292,0.0,0.0,79,0.00,,,0.00,,2013-02-06 13:01:00,
2013-02-06 08:12:00,28.0,22.0,30.22,WNW,292,0.0,0.0,79,0.00,,,0.00,,2013-02-06 13:12:00,
2013-02-06 08:22:00,27.0,21.0,30.23,WNW,292,0.0,0.0,79,0.00,,,0.00,,2013-02-06 13:22:00,
2013-02-06 08:32:00,27.0,21.0,30.23,WNW,292,0.0,0.0,79,0.00,,,0.00,,2013-02-06 13:32:00,
2013-02-06 08:42:00,27.0,21.0,30.23,WNW,292,0.0,0.0,79,0.00,,,0.00,,2013-02-06 13:42:00,
2013-02-06 08:52:00,27.0,21.0,30.23,WNW,292,0.0,0.0,79,0.00,,,0.00,,2013-02-06 13:52:00,
2013-02-06 09:02:00,28.0,23.0,30.23,WNW,292,0.0,0.0,80,0.00,,,0.00,,2013-02-06 14:02:00,
2013-02-06 09:11:00,28.0,23.0,30.23,WNW,292,0.0,0.0,80,0.00,,,0.00,,2013-02-06 14:11:00,
2013-02-06 09:22:00,28.0,23.0,30.23,WNW,292,0.0,0.0,80,0.00,,,0.00,,2013-02-06 14:22:00,
2013-02-06 09:32:00,29.0,24.0,30.23,WNW,292,0.0,0.0,80,0.00,,,0.00,,2013-02-06 14:32:00,
2013-02-06 09:42:00,30.0,25.0,30.23,WNW,292,0.0,0.0,80,0.00,,,0.00,,2013-02-06 14:42:00,
2013-02-06 09:52:00,30.0,25.0,30.23,WNW,292,0.0,0.0,80,0.00,,,0.00,,2013-02-06 14:52:00,
2013-02-06 10:02:00,30.0,25.0,30.23,WNW,292,0.0,0.0,80,0.00,,,0.00,,2013-02-06 15:02:00,
2013-02-06 10:11:00,33.0,27.0,30.24,South,180,0.0,0.0,78,0.00,,,0.00,,2013-02-06 15:11:00,
2013-02-06 10:21:00,33.0,27.0,30.24,South,180,0.0,0.0,78,0.00,,,0.00,,2013-02-06 15:21:00,
2013-02-06 10:32:00,34.0,28.0,30.24,South,180,0.0,0.0,77,0.00,,,0.00,,2013-02-06 15:32:00,
2013-02-06 10:42:00,35.0,28.0,30.25,SW,225,1.0,1.0,74,0.00,,,0.00,,2013-02-06 15:42:00,
2013-02-06 10:52:00,35.0,28.0,30.25,SW,225,1.0,1.0,74,0.00,,,0.00,,2013-02-06 15:52:00,
2013-02-06 11:01:00,35.0,27.0,30.25,SW,224,2.0,4.0,73,0.00,,,0.00,,2013-02-06 16:01:00,
2013-02-06 11:11:00,35.0,27.0,30.25,SW,224,2.0,4.0,73,0.00,,,0.00,,2013-02-06 16:11:00,
2013-02-06 11:21:00,35.0,27.0,30.26,SE,135,0.0,0.0,71,0.00,,,0.00,,2013-02-06 16:21:00,
2013-02-06 11:32:00,35.0,27.0,30.26,SW,225,1.0,2.0,71,0.00,,,0.00,,2013-02-06 16:32:00,
2013-02-06 11:42:00,35.0,27.0,30.26,SW,225,1.0,2.0,71,0.00,,,0.00,,2013-02-06 16:42:00,
2013-02-06 11:52:00,34.0,25.0,30.27,WSW,247,4.0,4.0,69,0.00,,,0.00,,2013-02-06 16:52:00,
2013-02-06 12:02:00,33.0,24.0,30.27,SSE,157,0.0,4.0,68,0.00,,,0.00,,2013-02-06 17:02:00,
2013-02-06 12:11:00,32.0,22.0,30.26,SW,225,0.0,4.0,67,0.00,,,0.00,,2013-02-06 17:11:00,
2013-02-06 12:22:00,32.0,22.0,30.26,SW,225,0.0,4.0,67,0.00,,,0.00,,2013-02-06 17:22:00,
2013-02-06 12:32:00,31.0,21.0,30.25,SSE,157,3.0,3.0,66,0.00,,,0.00,,2013-02-06 17:32:00,
2013-02-06 12:42:00,30.0,20.0,30.25,South,180,0.0,5.0,67,0.00,,,0.00,,2013-02-06 17:42:00,
2013-02-06 12:52:00,30.0,20.0,30.25,South,180,0.0,5.0,67,0.00,,,0.00,,2013-02-06 17:52:00,
2013-02-06 13:01:00,30.0,20.0,30.25,SSW,202,2.0,2.0,67,0.00,,,0.00,,2013-02-06 18:01:00,
2013-02-06 13:11:00,30.0,20.0,30.25,SSW,202,0.0,2.0,67,0.00,,,0.00,,2013-02-06 18:11:00,
2013-02-06 13:23:00,30.0,20.0,30.25,SSW,202,0.0,2.0,67,0.00,,,0.00,,2013-02-06 18:23:00,
2013-02-06 13:32:00,29.0,19.0,30.25,West,270,0.0,1.0,67,0.00,,,0.00,,2013-02-06 18:32:00,
2013-02-06 13:42:00,29.0,19.0,30.25,West,270,0.0,1.0,67,0.00,,,0.00,,2013-02-06 18:42:00,
2013-02-06 13:52:00,29.0,19.0,30.24,SSE,157,2.0,2.0,66,0.00,,,0.00,,2013-02-06 18:52:00,
2013-02-06 14:02:00,28.0,18.0,30.25,WSW,247,3.0,3.0,67,0.00,,,0.00,,2013-02-06 19:02:00,
2013-02-06 14:11:00,28.0,18.0,30.25,WSW,247,3.0,3.0,67,0.00,,,0.00,,2013-02-06 19:11:00,
2013-02-06 14:21:00,28.0,18.0,30.25,WSW,247,0.0,3.0,67,0.00,,,0.00,,2013-02-06 19:21:00,
2013-02-06 14:32:00,29.0,19.0,30.24,SSE,157,1.0,1.0,65,0.00,,,0.00,,2013-02-06 19:32:00,
2013-02-06 14:42:00,29.0,19.0,30.24,SSE,157,1.0,1.0,65,0.00,,,0.00,,2013-02-06 19:42:00,
2013-02-06 14:52:00,29.0,19.0,30.24,SE,135,0.0,5.0,65,0.00,,,0.00,,2013-02-06 19:52:00,
2013-02-06 15:01:00,29.0,19.0,30.24,SE,135,1.0,2.0,65,0.00,,,0.00,,2013-02-06 20:01:00,
2013-02-06 15:11:00,30.0,20.0,30.24,SSE,168,1.0,2.0,65,0.00,,,0.00,,2013-02-06 20:11:00,
2013-02-06 15:21:00,30.0,20.0,30.24,SSE,168,1.0,2.0,65,0.00,,,0.00,,2013-02-06 20:21:00,
2013-02-06 15:32:00,30.0,20.0,30.24,WSW,247,3.0,3.0,65,0.00,,,0.00,,2013-02-06 20:32:00,
2013-02-06 15:42:00,30.0,20.0,30.24,WSW,247,3.0,3.0,65,0.00,,,0.00,,2013-02-06 20:42:00,
2013-02-06 15:52:00,31.0,21.0,30.23,WSW,247,2.0,3.0,65,0.00,,,0.00,,2013-02-06 20:52:00,
2013-02-06 16:02:00,32.0,22.0,30.24,SSE,157,1.0,2.0,65,0.00,,,0.00,,2013-02-06 21:02:00,
2013-02-06 16:11:00,32.0,22.0,30.24,SSE,157,1.0,2.0,65,0.00,,,0.00,,2013-02-06 21:11:00,
2013-02-06 16:21:00,33.0,22.0,30.25,SW,225,5.0,5.0,64,0.00,,,0.00,,2013-02-06 21:21:00,
2013-02-06 16:32:00,34.0,23.0,30.25,SE,135,1.0,1.0,64,0.00,,,0.00,,2013-02-06 21:32:00,
2013-02-06 16:42:00,34.0,23.0,30.25,SE,135,1.0,1.0,64,0.00,,,0.00,,2013-02-06 21:42:00,
2013-02-06 16:52:00,35.0,24.0,30.24,WSW,247,3.0,3.0,64,0.00,,,0.00,,2013-02-06 21:52:00,
2013-02-06 17:01:00,36.0,25.0,30.24,SSE,157,0.0,3.0,65,0.00,,,0.00,,2013-02-06 22:01:00,
2013-02-06 17:11:00,36.0,25.0,30.24,SSE,157,0.0,3.0,65,0.00,,,0.00,,2013-02-06 22:11:00,
2013-02-06 17:21:00,36.0,25.0,30.24,SE,135,0.0,0.0,65,0.00,,,0.00,,2013-02-06 22:21:00,
2013-02-06 17:31:00,35.0,24.0,30.24,SE,135,1.0,1.0,65,0.00,,,0.00,,2013-02-06 22:31:00,
2013-02-06 17:42:00,35.0,24.0,30.24,SE,135,1.0,1.0,65,0.00,,,0.00,,2013-02-06 22:42:00,
2013-02-06 17:52:00,35.0,25.0,30.23,SSE,157,0.0,0.0,67,0.00,,,0.00,,2013-02-06 22:52:00,
2013-02-06 18:01:00,34.0,25.0,30.22,ESE,112,0.0,0.0,68,0.00,,,0.00,,2013-02-06 23:01:00,
2013-02-06 18:11:00,34.0,25.0,30.22,ESE,112,0.0,0.0,68,0.00,,,0.00,,2013-02-06 23:11:00,
2013-02-06 18:21:00,33.0,24.0,30.23,SSE,157,0.0,0.0,69,0.00,,,0.00,,2013-02-06 23:21:00,
2013-02-06 18:32:00,33.0,24.0,30.24,SSE,157,0.0,0.0,69,0.00,,,0.00,,2013-02-06 23:32:00,
2013-02-06 18:42:00,33.0,24.0,30.24,SSE,157,0.0,0.0,69,0.00,,,0.00,,2013-02-06 23:42:00,
2013-02-06 18:52:00,32.0,23.0,30.25,SSE,157,0.0,0.0,69,0.00,,,0.00,,2013-02-06 23:52:00,
2013-02-06 19:01:00,32.0,23.0,30.25,SSE,157,0.0,0.0,70,0.00,,,0.00,,2013-02-07 00:01:00,
2013-02-06 19:11:00,32.0,23.0,30.25,SSE,157,0.0,0.0,70,0.00,,,0.00,,2013-02-07 00:11:00,
2013-02-06 19:21:00,31.0,23.0,30.23,SSE,157,0.0,0.0,71,0.00,,,0.00,,2013-02-07 00:21:00,
2013-02-06 19:32:00,31.0,23.0,30.23,SSE,157,0.0,0.0,71,0.00,,,0.00,,2013-02-07 00:32:00,
2013-02-06 19:42:00,31.0,23.0,30.23,SSE,157,0.0,0.0,71,0.00,,,0.00,,2013-02-07 00:42:00,
2013-02-06 19:52:00,31.0,23.0,30.22,SE,135,0.0,0.0,71,0.00,,,0.00,,2013-02-07 00:52:00,
2013-02-06 20:01:00,31.0,24.0,30.22,SSE,157,0.0,0.0,74,0.00,,,0.00,,2013-02-07 01:01:00,
2013-02-06 20:11:00,31.0,24.0,30.22,SSE,157,0.0,0.0,74,0.00,,,0.00,,2013-02-07 01:11:00,
2013-02-06 20:21:00,31.0,24.0,30.22,SE,135,0.0,0.0,74,0.00,,,0.00,,2013-02-07 01:21:00,
2013-02-06 20:32:00,32.0,25.0,30.21,ESE,112,3.0,3.0,75,0.00,,,0.00,,2013-02-07 01:32:00,
2013-02-06 20:42:00,32.0,25.0,30.21,ESE,112,3.0,3.0,75,0.00,,,0.00,,2013-02-07 01:42:00,
2013-02-06 20:52:00,32.0,25.0,30.21,SSE,157,1.0,1.0,75,0.00,,,0.00,,2013-02-07 01:52:00,
2013-02-06 21:02:00,32.0,25.0,30.21,SSE,157,0.0,0.0,75,0.00,,,0.00,,2013-02-07 02:02:00,
2013-02-06 21:11:00,32.0,25.0,30.21,SSE,157,0.0,0.0,75,0.00,,,0.00,,2013-02-07 02:11:00,
2013-02-06 21:21:00,31.0,24.0,30.21,SSE,157,0.0,0.0,76,0.00,,,0.00,,2013-02-07 02:21:00,
2013-02-06 21:32:00,31.0,24.0,30.22,SE,135,1.0,1.0,76,0.00,,,0.00,,2013-02-07 02:32:00,
2013-02-06 21:42:00,31.0,24.0,30.22,SE,135,1.0,1.0,76,0.00,,,0.00,,2013-02-07 02:42:00,
2013-02-06 21:51:00,31.0,24.0,30.22,SE,135,1.0,1.0,76,0.00,,,0.00,,2013-02-07 02:51:00,
2013-02-06 22:02:00,31.0,25.0,30.22,SSE,157,1.0,1.0,77,0.00,,,0.00,,2013-02-07 03:02:00,
2013-02-06 22:11:00,31.0,25.0,30.21,SE,135,0.0,1.0,77,0.00,,,0.00,,2013-02-07 03:11:00,
2013-02-06 22:21:00,31.0,25.0,30.21,SE,135,0.0,1.0,77,0.00,,,0.00,,2013-02-07 03:21:00,
2013-02-06 22:32:00,31.0,25.0,30.21,SSE,157,0.0,0.0,78,0.00,,,0.00,,2013-02-07 03:32:00,
2013-02-06 22:42:00,31.0,25.0,30.21,SSE,157,0.0,0.0,78,0.00,,,0.00,,2013-02-07 03:42:00,
2013-02-06 22:52:00,31.0,25.0,30.20,SSE,157,0.0,0.0,78,0.00,,,0.00,,2013-02-07 03:52:00,
2013-02-06 23:01:00,30.0,24.0,30.19,SE,135,2.0,2.0,78,0.00,,,0.00,,2013-02-07 04:01:00,
2013-02-06 23:11:00,30.0,24.0,30.19,SE,135,2.0,2.0,78,0.00,,,0.00,,2013-02-07 04:11:00,
2013-02-06 23:22:00,30.0,24.0,30.19,SE,135,2.0,2.0,79,0.00,,,0.00,,2013-02-07 04:22:00,
2013-02-06 23:32:00,30.0,24.0,30.20,SSE,157,0.0,0.0,79,0.00,,,0.00,,2013-02-07 04:32:00,
2013-02-06 23:42:00,30.0,24.0,30.20,SSE,157,0.0,0.0,79,0.00,,,0.00,,2013-02-07 04:42:00,
2013-02-06 23:53:00,30.0,24.0,30.21,SSW,202,0.0,0.0,79,0.00,,,0.00,,2013-02-07 04:53:00,